createdAt,value
2023-02-17T00:01:29.372Z,46.71
2023-02-17T00:04:00.107Z,46.66
2023-02-17T00:06:30.704Z,46.88
2023-02-17T00:08:59.619Z,46.76
2023-02-17T00:11:28.560Z,46.77
2023-02-17T00:13:57.086Z,46.70
2023-02-17T00:16:27.815Z,46.63
2023-02-17T00:18:58.573Z,46.78
2023-02-17T00:21:30.676Z,46.86
2023-02-17T00:23:59.743Z,46.82
2023-02-17T00:26:28.520Z,46.91
2023-02-17T00:28:56.974Z,46.76
2023-02-17T00:31:25.472Z,46.75
2023-02-17T00:33:56.340Z,46.76
2023-02-17T00:36:25.995Z,46.80
2023-02-17T00:38:57.925Z,46.84
2023-02-17T00:41:27.824Z,46.89
2023-02-17T00:43:59.560Z,46.77
2023-02-17T00:46:28.563Z,46.91
2023-02-17T00:48:57.097Z,46.78
2023-02-17T00:51:26.763Z,46.79
2023-02-17T00:53:56.557Z,46.77
2023-02-17T00:56:24.964Z,46.79
2023-02-17T00:58:53.390Z,46.68
2023-02-17T01:01:21.903Z,46.64
2023-02-17T01:03:50.280Z,46.79
2023-02-17T01:06:24.590Z,46.83
2023-02-17T01:08:53.479Z,46.79
2023-02-17T01:11:26.502Z,46.74
2023-02-17T01:13:55.729Z,46.74
2023-02-17T01:16:25.934Z,46.76
2023-02-17T01:18:55.056Z,46.90
2023-02-17T01:21:25.916Z,46.69
2023-02-17T01:23:56.734Z,46.68
2023-02-17T01:26:28.832Z,46.69
2023-02-17T01:28:57.853Z,46.64
2023-02-17T01:31:28.141Z,46.74
2023-02-17T01:33:58.176Z,46.73
2023-02-17T01:36:27.281Z,46.60
2023-02-17T01:38:55.864Z,46.71
2023-02-17T01:41:28.184Z,46.61
2023-02-17T01:44:09.215Z,46.73
2023-02-17T01:46:40.410Z,46.74
2023-02-17T01:49:18.493Z,46.74
2023-02-17T01:51:53.762Z,46.78
2023-02-17T01:54:27.908Z,46.75
2023-02-17T01:56:59.163Z,46.58
2023-02-17T01:59:29.809Z,46.74
2023-02-17T02:02:01.682Z,46.64
2023-02-17T02:04:34.534Z,46.70
2023-02-17T02:07:06.587Z,46.72
2023-02-17T02:09:40.119Z,46.76
2023-02-17T02:12:19.388Z,46.65
2023-02-17T02:14:49.633Z,46.73
2023-02-17T02:17:27.120Z,46.69
2023-02-17T02:20:17.936Z,46.74
2023-02-17T02:23:25.196Z,46.67
2023-02-17T02:26:21.215Z,46.63
2023-02-17T02:29:15.559Z,46.72
2023-02-17T02:31:50.951Z,46.89
2023-02-17T02:34:23.370Z,46.71
2023-02-17T02:36:58.021Z,46.82
2023-02-17T02:39:31.269Z,46.79
2023-02-17T02:42:03.123Z,46.75
2023-02-17T02:44:31.868Z,46.83
2023-02-17T02:47:02.812Z,46.83
2023-02-17T02:49:36.578Z,46.68
2023-02-17T02:52:15.480Z,46.77
2023-02-17T02:54:53.729Z,46.59
2023-02-17T02:57:37.824Z,46.68
2023-02-17T03:00:16.490Z,46.75
2023-02-17T03:02:52.596Z,46.68
2023-02-17T03:05:29.802Z,47.02
2023-02-17T03:08:03.996Z,46.70
2023-02-17T03:10:32.739Z,46.76
2023-02-17T03:13:02.882Z,46.77
2023-02-17T03:15:34.216Z,46.73
2023-02-17T03:18:04.514Z,46.90
2023-02-17T03:20:39.344Z,46.83
2023-02-17T03:23:08.697Z,46.86
2023-02-17T03:25:37.646Z,46.74
2023-02-17T03:28:06.314Z,46.86
2023-02-17T03:30:34.799Z,46.84
2023-02-17T03:33:03.440Z,46.83
2023-02-17T03:35:32.046Z,46.67
2023-02-17T03:38:01.916Z,46.75
2023-02-17T03:40:30.578Z,46.91
2023-02-17T03:42:59.191Z,46.86
2023-02-17T03:45:27.674Z,46.93
2023-02-17T03:47:56.149Z,46.80
2023-02-17T03:50:24.592Z,46.79
2023-02-17T03:52:53.217Z,46.77
2023-02-17T03:55:23.053Z,46.79
2023-02-17T03:57:51.454Z,46.85
2023-02-17T04:00:21.780Z,46.91
2023-02-17T04:02:52.465Z,46.72
2023-02-17T04:05:20.883Z,46.94
2023-02-17T04:07:49.408Z,46.87
2023-02-17T04:10:18.136Z,46.86
2023-02-17T04:12:47.999Z,46.96
2023-02-17T04:15:16.406Z,46.78
2023-02-17T04:17:44.856Z,47.00
2023-02-17T04:20:14.063Z,46.79
2023-02-17T04:22:42.670Z,46.99
2023-02-17T04:25:11.111Z,46.95
2023-02-17T04:27:39.558Z,46.83
2023-02-17T04:30:12.411Z,46.94
2023-02-17T04:32:41.024Z,46.92
2023-02-17T04:35:09.537Z,47.06
2023-02-17T04:37:38.020Z,46.96
2023-02-17T04:40:10.279Z,47.05
2023-02-17T04:42:39.324Z,46.85
2023-02-17T04:45:10.269Z,46.91
2023-02-17T04:47:38.742Z,47.05
2023-02-17T04:50:09.795Z,46.95
2023-02-17T04:52:38.862Z,47.16
2023-02-17T04:55:08.678Z,46.97
2023-02-17T04:57:37.183Z,46.90
2023-02-17T05:00:07.444Z,47.04
2023-02-17T05:02:37.301Z,47.08
2023-02-17T05:05:05.972Z,46.93
2023-02-17T05:07:34.464Z,47.03
2023-02-17T05:10:03.098Z,47.23
2023-02-17T05:12:31.532Z,47.04
2023-02-17T05:14:59.984Z,46.90
2023-02-17T05:17:28.482Z,46.68
2023-02-17T05:19:58.378Z,46.50
2023-02-17T05:22:27.418Z,46.47
2023-02-17T05:24:55.911Z,46.24
2023-02-17T05:27:24.361Z,46.24
2023-02-17T05:29:52.896Z,46.07
2023-02-17T05:32:21.286Z,45.75
2023-02-17T05:34:49.718Z,45.55
2023-02-17T05:37:19.751Z,45.62
2023-02-17T05:39:48.224Z,45.59
2023-02-17T05:42:16.715Z,45.55
2023-02-17T05:44:45.218Z,45.76
2023-02-17T05:47:13.717Z,45.72
2023-02-17T05:49:42.156Z,45.67
2023-02-17T05:52:10.632Z,45.78
2023-02-17T05:54:40.511Z,45.90
2023-02-17T05:57:09.068Z,45.98
2023-02-17T05:59:37.538Z,46.19
2023-02-17T06:02:06.046Z,46.05
2023-02-17T06:04:34.681Z,46.14
2023-02-17T06:07:03.385Z,46.18
2023-02-17T06:09:32.398Z,46.35
2023-02-17T06:12:02.200Z,46.35
2023-02-17T06:14:30.663Z,46.30
2023-02-17T06:17:01.160Z,46.24
2023-02-17T06:19:30.071Z,46.19
2023-02-17T06:21:58.570Z,46.10
2023-02-17T06:24:27.076Z,46.18
2023-02-17T06:26:55.565Z,46.06
2023-02-17T06:29:25.348Z,46.10
2023-02-17T06:31:53.828Z,46.18
2023-02-17T06:34:22.307Z,46.19
2023-02-17T06:36:50.877Z,46.08
2023-02-17T06:39:19.360Z,46.20
2023-02-17T06:41:48.008Z,46.26
2023-02-17T06:44:16.518Z,46.46
2023-02-17T06:46:46.895Z,46.56
2023-02-17T06:49:15.904Z,46.64
2023-02-17T06:51:44.361Z,46.62
2023-02-17T06:54:12.878Z,46.87
2023-02-17T06:56:41.366Z,48.14
2023-02-17T06:59:09.806Z,48.32
2023-02-17T07:01:38.309Z,48.49
2023-02-17T07:04:08.180Z,48.28
2023-02-17T07:06:36.596Z,48.21
2023-02-17T07:09:05.154Z,48.31
2023-02-17T07:11:33.591Z,48.47
2023-02-17T07:14:02.719Z,48.42
2023-02-17T07:16:31.476Z,48.57
2023-02-17T07:19:00.139Z,48.51
2023-02-17T07:21:30.009Z,48.81
2023-02-17T07:23:58.510Z,48.74
2023-02-17T07:26:27.005Z,48.88
2023-02-17T07:28:55.487Z,49.03
2023-02-17T07:31:24.057Z,48.97
2023-02-17T07:33:52.597Z,49.33
2023-02-17T07:36:21.094Z,49.20
2023-02-17T07:38:51.146Z,49.25
2023-02-17T07:41:21.688Z,49.36
2023-02-17T07:43:50.383Z,49.38
2023-02-17T07:46:18.897Z,49.30
2023-02-17T07:48:47.815Z,49.67
2023-02-17T07:51:18.094Z,49.73
2023-02-17T07:53:46.618Z,49.37
2023-02-17T07:56:21.436Z,49.76
2023-02-17T07:58:50.212Z,48.71
2023-02-17T08:01:20.512Z,48.45
2023-02-17T08:03:49.635Z,48.23
2023-02-17T08:06:20.493Z,49.05
2023-02-17T08:09:07.585Z,49.12
2023-02-17T08:11:55.049Z,49.33
2023-02-17T08:14:25.501Z,49.36
2023-02-17T08:16:54.299Z,48.58
2023-02-17T08:19:23.138Z,47.85
2023-02-17T08:21:51.653Z,46.92
2023-02-17T08:24:21.289Z,46.11
2023-02-17T08:26:51.197Z,45.55
2023-02-17T08:29:20.323Z,45.51
2023-02-17T08:31:53.709Z,45.76
2023-02-17T08:34:22.183Z,45.93
2023-02-17T08:36:50.669Z,46.27
2023-02-17T08:39:19.353Z,46.51
2023-02-17T08:41:47.793Z,46.84
2023-02-17T08:44:20.881Z,47.00
2023-02-17T08:46:50.781Z,47.19
2023-02-17T08:49:21.948Z,47.22
2023-02-17T08:51:52.098Z,47.46
2023-02-17T08:54:20.851Z,47.73
2023-02-17T08:56:49.297Z,47.65
2023-02-17T08:59:19.137Z,47.73
2023-02-17T09:01:47.705Z,47.82
2023-02-17T09:04:16.962Z,48.11
2023-02-17T09:06:47.644Z,48.16
2023-02-17T09:09:18.106Z,48.43
2023-02-17T09:11:46.919Z,48.29
2023-02-17T09:14:15.607Z,48.74
2023-02-17T09:16:45.462Z,48.76
2023-02-17T09:19:13.956Z,48.67
2023-02-17T09:21:42.473Z,48.81
2023-02-17T09:24:11.186Z,48.76
2023-02-17T09:26:39.820Z,48.76
2023-02-17T09:29:08.675Z,48.89
2023-02-17T09:31:37.904Z,48.58
2023-02-17T09:34:07.829Z,48.70
2023-02-17T09:36:41.374Z,49.21
2023-02-17T09:39:13.426Z,48.61
2023-02-17T09:41:45.218Z,47.71
2023-02-17T09:44:21.804Z,47.48
2023-02-17T09:47:02.095Z,46.97
2023-02-17T09:49:39.289Z,46.55
2023-02-17T09:52:15.309Z,46.49
2023-02-17T09:54:54.892Z,46.19
2023-02-17T09:57:28.408Z,45.93
2023-02-17T10:00:00.953Z,46.08
2023-02-17T10:02:37.774Z,46.34
2023-02-17T10:05:12.516Z,46.44
2023-02-17T10:07:45.477Z,46.47
2023-02-17T10:10:19.481Z,46.71
2023-02-17T10:12:54.665Z,46.72
2023-02-17T10:15:26.548Z,46.74
2023-02-17T10:18:00.585Z,46.98
2023-02-17T10:20:34.696Z,46.80
2023-02-17T10:23:05.512Z,46.86
2023-02-17T10:25:49.747Z,46.83
2023-02-17T10:28:23.744Z,46.77
2023-02-17T10:31:01.762Z,47.03
2023-02-17T10:33:36.262Z,46.98
2023-02-17T10:36:17.854Z,47.04
2023-02-17T10:38:52.211Z,47.07
2023-02-17T10:41:24.888Z,47.04
2023-02-17T10:43:53.962Z,47.03
2023-02-17T10:46:29.982Z,47.05
2023-02-17T10:49:00.607Z,47.11
2023-02-17T10:51:31.689Z,47.12
2023-02-17T10:54:05.287Z,47.03
2023-02-17T10:56:39.366Z,47.19
2023-02-17T10:59:12.976Z,47.09
2023-02-17T11:01:42.535Z,47.11
2023-02-17T11:04:13.951Z,47.09
2023-02-17T11:06:46.195Z,47.25
2023-02-17T11:09:21.095Z,47.25
2023-02-17T11:11:58.446Z,47.28
2023-02-17T11:14:29.163Z,47.31
2023-02-17T11:17:00.102Z,47.22
2023-02-17T11:19:30.573Z,47.22
2023-02-17T11:22:01.788Z,47.23
2023-02-17T11:24:32.165Z,47.47
2023-02-17T11:27:03.060Z,47.51
2023-02-17T11:29:33.148Z,47.81
2023-02-17T11:32:07.035Z,47.47
2023-02-17T11:34:38.010Z,47.41
2023-02-17T11:37:21.805Z,47.51
2023-02-17T11:39:53.398Z,48.12
2023-02-17T11:42:23.414Z,48.46
2023-02-17T11:44:52.513Z,48.61
2023-02-17T11:47:30.964Z,48.64
2023-02-17T11:50:26.159Z,48.73
2023-02-17T11:53:17.012Z,48.40
2023-02-17T11:55:54.972Z,48.24
2023-02-17T11:58:34.474Z,48.61
2023-02-17T12:01:12.552Z,48.38
2023-02-17T12:03:53.247Z,48.16
2023-02-17T12:06:25.114Z,47.98
2023-02-17T12:09:07.829Z,48.01
2023-02-17T12:11:44.510Z,47.97
2023-02-17T12:14:34.253Z,47.72
2023-02-17T12:17:13.136Z,47.64
2023-02-17T12:19:53.040Z,47.97
2023-02-17T12:22:28.115Z,48.05
2023-02-17T12:25:16.682Z,48.00
2023-02-17T12:27:57.475Z,48.01
2023-02-17T12:30:40.291Z,48.04
2023-02-17T12:33:31.975Z,48.03
2023-02-17T12:36:04.755Z,48.32
2023-02-17T12:38:37.710Z,48.11
2023-02-17T12:41:11.310Z,48.38
2023-02-17T12:43:48.003Z,48.65
2023-02-17T12:46:23.638Z,48.74
2023-02-17T12:48:57.657Z,49.15
2023-02-17T12:51:31.160Z,49.04
2023-02-17T12:54:05.343Z,49.40
2023-02-17T12:56:48.064Z,48.71
2023-02-17T12:59:19.265Z,49.26
2023-02-17T13:02:00.527Z,49.17
2023-02-17T13:04:30.739Z,48.96
2023-02-17T13:07:21.672Z,48.90
2023-02-17T13:09:51.999Z,48.96
2023-02-17T13:12:41.025Z,49.62
2023-02-17T13:15:29.656Z,49.77
2023-02-17T13:18:01.340Z,50.26
2023-02-17T13:20:45.810Z,50.22
2023-02-17T13:23:27.713Z,50.37
2023-02-17T13:26:09.274Z,50.38
2023-02-17T13:28:40.726Z,50.06
2023-02-17T13:31:11.627Z,50.36
2023-02-17T13:33:49.966Z,50.22
2023-02-17T13:36:35.186Z,50.32
2023-02-17T13:39:08.326Z,50.38
2023-02-17T13:41:47.697Z,50.41
2023-02-17T13:44:30.124Z,50.27
2023-02-17T13:47:01.637Z,50.44
2023-02-17T13:49:33.261Z,50.56
2023-02-17T13:52:10.202Z,50.59
2023-02-17T13:54:38.761Z,50.51
2023-02-17T13:57:07.183Z,50.65
2023-02-17T13:59:38.051Z,50.41
2023-02-17T14:02:35.118Z,50.04
2023-02-17T14:05:17.187Z,49.69
2023-02-17T14:07:48.166Z,49.20
2023-02-17T14:10:21.243Z,48.73
2023-02-17T14:12:50.092Z,48.60
2023-02-17T14:15:22.616Z,48.25
2023-02-17T14:17:51.282Z,48.10
2023-02-17T14:20:32.916Z,47.24
2023-02-17T14:23:06.740Z,47.06
2023-02-17T14:25:37.259Z,47.15
2023-02-17T14:28:06.293Z,46.47
2023-02-17T14:30:38.345Z,46.47
2023-02-17T14:33:08.966Z,46.72
2023-02-17T14:35:39.398Z,46.47
2023-02-17T14:38:11.041Z,46.66
2023-02-17T14:40:40.290Z,46.62
2023-02-17T14:43:08.884Z,46.24
2023-02-17T14:45:38.739Z,46.21
2023-02-17T14:48:07.341Z,46.16
2023-02-17T14:50:42.204Z,45.81
2023-02-17T14:53:19.013Z,45.50
2023-02-17T14:55:51.258Z,45.71
2023-02-17T14:58:21.837Z,45.41
2023-02-17T15:00:52.451Z,45.57
2023-02-17T15:03:20.934Z,45.65
2023-02-17T15:05:49.791Z,45.55
2023-02-17T15:08:20.670Z,45.47
2023-02-17T15:10:50.017Z,45.18
2023-02-17T15:13:20.674Z,45.65
2023-02-17T15:15:50.756Z,45.70
2023-02-17T15:18:21.031Z,45.73
2023-02-17T15:20:51.264Z,45.90
2023-02-17T15:23:21.898Z,45.84
2023-02-17T15:25:51.070Z,45.91
2023-02-17T15:28:21.035Z,45.57
2023-02-17T15:30:53.657Z,45.51
2023-02-17T15:33:23.631Z,45.35
2023-02-17T15:35:54.519Z,45.77
2023-02-17T15:38:23.953Z,45.30
2023-02-17T15:40:56.662Z,45.49
2023-02-17T15:43:31.733Z,45.80
2023-02-17T15:46:01.747Z,45.52
2023-02-17T15:48:31.867Z,45.65
2023-02-17T15:51:00.363Z,45.85
2023-02-17T15:53:32.406Z,45.61
2023-02-17T15:56:01.662Z,45.67
2023-02-17T15:58:31.292Z,45.59
2023-02-17T16:01:03.862Z,45.40
2023-02-17T16:03:32.523Z,45.90
2023-02-17T16:06:01.033Z,45.44
2023-02-17T16:08:29.451Z,45.59
2023-02-17T16:10:57.996Z,45.75
2023-02-17T16:13:28.240Z,45.56
2023-02-17T16:15:59.514Z,45.73
2023-02-17T16:18:29.983Z,45.79
2023-02-17T16:20:58.513Z,45.31
2023-02-17T16:23:27.249Z,45.80
2023-02-17T16:25:56.053Z,45.79
2023-02-17T16:28:24.465Z,45.80
2023-02-17T16:30:53.072Z,45.87
2023-02-17T16:33:21.562Z,45.52
2023-02-17T16:35:52.349Z,45.38
2023-02-17T16:38:24.288Z,46.03
2023-02-17T16:40:54.795Z,45.54
2023-02-17T16:43:25.406Z,45.40
2023-02-17T16:45:56.454Z,44.94
2023-02-17T16:48:27.362Z,45.00
2023-02-17T16:50:57.413Z,45.19
2023-02-17T16:53:25.862Z,45.17
2023-02-17T16:55:56.133Z,45.25
2023-02-17T16:58:26.798Z,45.60
2023-02-17T17:00:56.958Z,45.50
2023-02-17T17:03:25.714Z,45.14
2023-02-17T17:05:54.769Z,45.46
2023-02-17T17:08:24.554Z,45.63
2023-02-17T17:10:52.994Z,45.24
2023-02-17T17:13:21.403Z,45.51
2023-02-17T17:15:50.039Z,45.24
2023-02-17T17:18:21.382Z,45.19
2023-02-17T17:20:50.689Z,45.48
2023-02-17T17:23:19.948Z,45.26
2023-02-17T17:25:49.745Z,45.28
2023-02-17T17:28:19.953Z,45.04
2023-02-17T17:30:49.420Z,44.46
2023-02-17T17:33:17.845Z,44.59
2023-02-17T17:35:46.317Z,44.84
2023-02-17T17:38:16.348Z,44.63
2023-02-17T17:40:56.565Z,44.79
2023-02-17T17:43:25.059Z,45.19
2023-02-17T17:45:53.577Z,45.11
2023-02-17T17:48:22.183Z,45.00
2023-02-17T17:50:50.718Z,45.04
2023-02-17T17:53:19.123Z,45.60
2023-02-17T17:55:48.361Z,45.34
2023-02-17T17:58:18.166Z,45.44
2023-02-17T18:00:46.640Z,46.30
2023-02-17T18:03:15.111Z,45.90
2023-02-17T18:05:43.554Z,46.24
2023-02-17T18:08:12.412Z,45.90
2023-02-17T18:10:42.581Z,45.58
2023-02-17T18:13:13.315Z,46.10
2023-02-17T18:15:44.410Z,46.03
2023-02-17T18:18:14.165Z,46.15
2023-02-17T18:20:43.044Z,45.94
2023-02-17T18:23:11.468Z,46.17
2023-02-17T18:25:39.899Z,46.13
2023-02-17T18:28:08.372Z,46.02
2023-02-17T18:30:36.871Z,46.32
2023-02-17T18:33:06.637Z,46.62
2023-02-17T18:35:36.046Z,46.56
2023-02-17T18:38:04.528Z,46.27
2023-02-17T18:40:33.132Z,46.23
2023-02-17T18:43:01.569Z,46.55
2023-02-17T18:45:30.082Z,46.67
2023-02-17T18:47:58.547Z,46.43
2023-02-17T18:50:32.895Z,46.55
2023-02-17T18:53:02.568Z,46.39
2023-02-17T18:55:32.122Z,46.38
2023-02-17T18:58:00.566Z,46.44
2023-02-17T19:00:29.408Z,46.57
2023-02-17T19:02:58.140Z,46.79
2023-02-17T19:05:29.643Z,46.57
2023-02-17T19:07:58.402Z,46.55
2023-02-17T19:10:26.866Z,46.46
2023-02-17T19:12:55.449Z,46.66
2023-02-17T19:15:23.937Z,46.54
2023-02-17T19:17:56.406Z,46.62
2023-02-17T19:20:27.365Z,46.81
2023-02-17T19:22:57.118Z,46.67
2023-02-17T19:25:25.875Z,46.92
2023-02-17T19:27:54.274Z,46.76
2023-02-17T19:30:22.945Z,46.95
2023-02-17T19:32:51.388Z,46.62
2023-02-17T19:35:19.895Z,46.46
2023-02-17T19:37:48.360Z,47.00
2023-02-17T19:40:18.341Z,46.78
2023-02-17T19:42:46.762Z,46.89
2023-02-17T19:45:15.183Z,46.69
2023-02-17T19:47:43.568Z,46.47
2023-02-17T19:50:12.126Z,46.37
2023-02-17T19:52:40.572Z,46.50
2023-02-17T19:55:09.971Z,46.39
2023-02-17T19:57:39.811Z,46.48
2023-02-17T20:00:10.054Z,46.62
2023-02-17T20:02:38.927Z,46.75
2023-02-17T20:05:08.451Z,46.45
2023-02-17T20:07:36.877Z,46.94
2023-02-17T20:10:06.267Z,46.68
2023-02-17T20:12:34.745Z,46.68
2023-02-17T20:15:04.702Z,46.79
2023-02-17T20:17:33.150Z,47.08
2023-02-17T20:20:01.654Z,46.68
2023-02-17T20:22:30.066Z,46.65
2023-02-17T20:24:58.490Z,46.69
2023-02-17T20:27:27.028Z,46.70
2023-02-17T20:29:55.541Z,46.94
2023-02-17T20:32:25.534Z,46.64
2023-02-17T20:34:54.001Z,46.85
2023-02-17T20:37:22.534Z,47.07
2023-02-17T20:39:51.494Z,46.71
2023-02-17T20:42:19.873Z,47.05
2023-02-17T20:44:50.250Z,47.19
2023-02-17T20:47:18.765Z,47.19
2023-02-17T20:49:48.904Z,47.39
2023-02-17T20:52:17.387Z,47.07
2023-02-17T20:54:46.315Z,47.07
2023-02-17T20:57:15.589Z,47.33
2023-02-17T20:59:44.021Z,47.21
2023-02-17T21:02:12.746Z,47.19
2023-02-17T21:04:41.249Z,47.31
2023-02-17T21:07:11.829Z,47.31
2023-02-17T21:09:40.302Z,47.37
2023-02-17T21:12:08.993Z,47.23
2023-02-17T21:14:37.422Z,47.43
2023-02-17T21:17:05.941Z,47.48
2023-02-17T21:19:34.423Z,47.13
2023-02-17T21:22:02.826Z,47.27
2023-02-17T21:24:32.568Z,47.46
2023-02-17T21:27:01.116Z,47.23
2023-02-17T21:29:29.546Z,47.33
2023-02-17T21:31:58.089Z,47.51
2023-02-17T21:34:26.482Z,47.68
2023-02-17T21:36:54.975Z,47.75
2023-02-17T21:39:23.401Z,47.49
2023-02-17T21:41:53.938Z,47.72
2023-02-17T21:44:39.909Z,47.63
2023-02-17T21:47:08.374Z,47.84
2023-02-17T21:49:36.850Z,47.82
2023-02-17T21:52:05.381Z,47.91
2023-02-17T21:54:33.816Z,48.02
2023-02-17T21:57:04.537Z,47.78
2023-02-17T21:59:33.169Z,47.93
2023-02-17T22:02:02.068Z,48.03
2023-02-17T22:04:30.546Z,48.07
2023-02-17T22:06:59.010Z,48.13
2023-02-17T22:09:27.411Z,48.18
2023-02-17T22:11:56.167Z,48.17
2023-02-17T22:14:26.031Z,48.11
2023-02-17T22:16:54.532Z,47.95
2023-02-17T22:19:24.801Z,48.09
2023-02-17T22:21:53.328Z,48.04
2023-02-17T22:24:21.805Z,48.20
2023-02-17T22:26:51.386Z,48.27
2023-02-17T22:29:20.006Z,48.11
2023-02-17T22:31:55.592Z,48.23
2023-02-17T22:34:26.079Z,48.15
2023-02-17T22:36:54.480Z,48.33
2023-02-17T22:39:22.909Z,48.20
2023-02-17T22:41:51.256Z,48.14
2023-02-17T22:44:19.733Z,48.23
2023-02-17T22:46:49.597Z,48.25
2023-02-17T22:49:17.984Z,48.24
2023-02-17T22:51:46.365Z,48.21
2023-02-17T22:54:14.758Z,48.37
2023-02-17T22:56:43.195Z,48.29
2023-02-17T22:59:11.683Z,48.40
2023-02-17T23:01:40.158Z,48.31
2023-02-17T23:04:13.749Z,48.15
2023-02-17T23:06:43.441Z,48.37
2023-02-17T23:09:20.773Z,48.24
2023-02-17T23:11:53.739Z,48.18
2023-02-17T23:14:25.600Z,48.28
2023-02-17T23:16:55.667Z,48.09
2023-02-17T23:19:25.607Z,48.36
2023-02-17T23:21:56.673Z,48.35
2023-02-17T23:24:27.222Z,48.33
2023-02-17T23:26:57.398Z,48.21
2023-02-17T23:29:25.988Z,48.33
2023-02-17T23:31:54.507Z,48.25
2023-02-17T23:34:23.073Z,48.45
2023-02-17T23:36:52.945Z,48.40
2023-02-17T23:39:21.474Z,48.34
2023-02-17T23:41:50.065Z,48.24
2023-02-17T23:44:18.839Z,48.25
2023-02-17T23:46:47.601Z,48.41
2023-02-17T23:49:17.611Z,48.44
2023-02-17T23:51:47.275Z,48.36
2023-02-17T23:54:17.134Z,48.44
2023-02-17T23:56:45.784Z,48.33
2023-02-17T23:59:14.414Z,48.41
